TimeCDT,TemperatureF,Dew PointF,Humidity,Sea Level PressureIn,VisibilityMPH,Wind Direction,Wind SpeedMPH,Gust SpeedMPH,PrecipitationIn,Events,Conditions,WindDirDegrees,DateUTC
12:14 AM,66.2,60.8,83,29.88,10.0,Calm,Calm,-,N/A,,Clear,0,2013-08-02 05:14:00
12:34 AM,64.4,59.0,83,29.88,10.0,NW,3.5,-,N/A,,Clear,310,2013-08-02 05:34:00
12:54 AM,64.4,59.0,83,29.87,10.0,WNW,3.5,-,N/A,,Clear,300,2013-08-02 05:54:00
1:14 AM,66.2,59.0,78,29.86,10.0,West,3.5,-,N/A,,Clear,270,2013-08-02 06:14:00
1:34 AM,64.4,59.0,83,29.86,10.0,Calm,Calm,-,N/A,,Clear,0,2013-08-02 06:34:00
1:54 AM,62.6,57.2,82,29.86,10.0,Calm,Calm,-,N/A,,Clear,0,2013-08-02 06:54:00
2:14 AM,64.4,57.2,77,29.87,10.0,West,3.5,-,N/A,,Clear,270,2013-08-02 07:14:00
2:34 AM,64.4,57.2,77,29.87,10.0,West,3.5,-,N/A,,Clear,260,2013-08-02 07:34:00
2:54 AM,62.6,57.2,82,29.87,10.0,West,3.5,-,N/A,,Clear,280,2013-08-02 07:54:00
3:14 AM,62.6,55.4,77,29.87,10.0,West,3.5,-,N/A,,Clear,270,2013-08-02 08:14:00
3:34 AM,60.8,55.4,82,29.88,10.0,WNW,4.6,-,N/A,,Clear,290,2013-08-02 08:34:00
3:54 AM,62.6,55.4,77,29.88,10.0,NW,6.9,-,N/A,,Clear,320,2013-08-02 08:54:00
4:13 AM,60.8,55.4,82,29.88,10.0,WNW,4.6,-,N/A,,Clear,300,2013-08-02 09:13:00
4:34 AM,60.8,55.4,82,29.88,10.0,WNW,3.5,-,N/A,,Clear,300,2013-08-02 09:34:00
4:54 AM,60.8,55.4,82,29.88,10.0,NW,3.5,-,N/A,,Clear,310,2013-08-02 09:54:00
5:14 AM,59.0,55.4,88,29.89,10.0,West,3.5,-,N/A,,Clear,270,2013-08-02 10:14:00
5:34 AM,60.8,55.4,82,29.90,10.0,West,4.6,-,N/A,,Clear,260,2013-08-02 10:34:00
5:54 AM,57.2,55.4,94,29.90,10.0,NW,4.6,-,N/A,,Clear,310,2013-08-02 10:54:00
6:14 AM,57.2,53.6,88,29.90,10.0,NW,3.5,-,N/A,,Clear,310,2013-08-02 11:14:00
6:34 AM,57.2,53.6,88,29.91,10.0,NW,4.6,-,N/A,,Clear,310,2013-08-02 11:34:00
6:45 AM,57.2,55.4,94,29.91,10.0,Calm,Calm,-,N/A,,Partly Cloudy,0,2013-08-02 11:45:00
6:54 AM,60.8,55.4,82,29.91,10.0,NW,4.6,-,N/A,,Clear,310,2013-08-02 11:54:00
7:45 AM,64.4,57.2,77,29.92,10.0,WNW,6.9,-,N/A,,Partly Cloudy,300,2013-08-02 12:45:00
8:50 AM,68.0,57.2,68,29.94,10.0,WNW,5.8,-,N/A,,Scattered Clouds,300,2013-08-02 13:50:00
9:50 AM,73.4,57.2,57,29.94,10.0,North,10.4,-,N/A,,Scattered Clouds,360,2013-08-02 14:50:00
10:50 AM,73.4,53.6,50,29.94,10.0,NNW,11.5,-,N/A,,Scattered Clouds,340,2013-08-02 15:50:00
11:50 AM,75.2,53.6,47,29.95,10.0,North,8.1,-,N/A,,Mostly Cloudy,350,2013-08-02 16:50:00
12:55 PM,75.2,53.6,47,29.95,10.0,NNW,11.5,-,N/A,,Scattered Clouds,330,2013-08-02 17:55:00
2:45 PM,75.2,51.8,44,29.97,10.0,NNW,12.7,-,N/A,,Scattered Clouds,340,2013-08-02 19:45:00
3:45 PM,75.2,48.2,38,29.97,10.0,NNW,12.7,-,N/A,,Mostly Cloudy,340,2013-08-02 20:45:00
4:45 PM,75.2,50.0,41,29.97,10.0,NNW,12.7,-,N/A,,Mostly Cloudy,330,2013-08-02 21:45:00
5:45 PM,75.2,48.2,38,29.97,10.0,NNW,12.7,-,N/A,,Mostly Cloudy,330,2013-08-02 22:45:00
6:45 PM,75.2,51.8,44,29.98,10.0,NNW,11.5,-,N/A,,Mostly Cloudy,340,2013-08-02 23:45:00
7:45 PM,73.4,51.8,47,29.99,10.0,NNW,11.5,-,N/A,,Partly Cloudy,340,2013-08-03 00:45:00
8:45 PM,68.0,53.6,60,30.00,10.0,NNW,6.9,-,N/A,,Partly Cloudy,330,2013-08-03 01:45:00
9:14 PM,66.2,53.6,64,30.01,10.0,Calm,Calm,-,N/A,,Clear,0,2013-08-03 02:14:00
9:34 PM,64.4,53.6,68,30.02,10.0,Calm,Calm,-,N/A,,Clear,0,2013-08-03 02:34:00
9:45 PM,64.4,53.6,68,30.03,10.0,Calm,Calm,-,N/A,,Partly Cloudy,0,2013-08-03 02:45:00
9:53 PM,64.4,53.6,68,30.03,10.0,Calm,Calm,-,N/A,,Clear,0,2013-08-03 02:53:00
10:14 PM,62.6,53.6,72,30.03,10.0,Calm,Calm,-,N/A,,Clear,0,2013-08-03 03:14:00
10:34 PM,62.6,53.6,72,30.04,10.0,Calm,Calm,-,N/A,,Clear,0,2013-08-03 03:34:00
10:53 PM,60.8,53.6,77,30.04,10.0,Calm,Calm,-,N/A,,Clear,0,2013-08-03 03:53:00
11:14 PM,60.8,53.6,77,30.05,10.0,Calm,Calm,-,N/A,,Clear,0,2013-08-03 04:14:00
11:34 PM,59.0,53.6,82,30.04,10.0,Calm,Calm,-,N/A,,Clear,0,2013-08-03 04:34:00
11:53 PM,59.0,53.6,82,30.05,10.0,Calm,Calm,-,N/A,,Clear,0,2013-08-03 04:53:00